Time;durP1;ratioP1;P1;durP2;ratioP2;P2;SDS_P1;SDS_P2;PMS_P1;PMS_P2;Temp;Humidity;BMP_temperature;BMP_pressure;BME280_temperature;BME280_humidity;BME280_pressure;Samples;Min_cycle;Max_cycle;Signal;HPM_P1;HPM_P2
2023/05/14 00:00:47;;;;;;;7.35;4.43;;;22.00;48.90;;;;;;4992684;28;20026;-77
2023/05/14 00:03:13;;;;;;;7.80;4.65;;;22.00;49.00;;;;;;4992728;28;20092;-76
2023/05/14 00:05:39;;;;;;;7.68;4.55;;;22.00;49.00;;;;;;4992570;28;20117;-77
2023/05/14 00:08:05;;;;;;;9.18;4.55;;;21.90;48.80;;;;;;4958987;28;20027;-77
2023/05/14 00:10:31;;;;;;;8.73;4.75;;;22.00;49.00;;;;;;4943184;28;20080;-77
2023/05/14 00:12:57;;;;;;;7.40;4.63;;;22.00;49.00;;;;;;4975094;28;20037;-77
2023/05/14 00:15:23;;;;;;;7.00;4.40;;;22.00;49.00;;;;;;4975211;28;20481;-77
2023/05/14 00:17:49;;;;;;;6.03;4.25;;;21.90;48.90;;;;;;4992059;28;20026;-77
2023/05/14 00:20:15;;;;;;;7.10;4.60;;;21.90;48.90;;;;;;4958915;28;20034;-77
2023/05/14 00:22:41;;;;;;;7.32;4.50;;;21.90;49.00;;;;;;4992438;28;20113;-77
2023/05/14 00:25:09;;;;;;;6.88;4.30;;;21.90;48.90;;;;;;4992224;28;20061;-77
2023/05/14 00:27:38;;;;;;;7.60;4.63;;;22.00;49.00;;;;;;4974861;28;20037;-77
2023/05/14 00:30:05;;;;;;;7.97;4.30;;;22.00;49.00;;;;;;4958983;28;20080;-77
2023/05/14 00:32:32;;;;;;;8.52;4.50;;;22.00;49.00;;;;;;4992310;28;20030;-77
2023/05/14 00:34:58;;;;;;;7.05;4.10;;;22.00;48.90;;;;;;4974937;28;20385;-77
2023/05/14 00:37:24;;;;;;;7.80;4.25;;;22.00;48.90;;;;;;4958277;28;20068;-76
2023/05/14 00:39:49;;;;;;;8.77;4.47;;;22.00;48.90;;;;;;4974748;28;20465;-77
2023/05/14 00:42:15;;;;;;;6.72;4.22;;;22.00;49.00;;;;;;4942592;28;20035;-77
2023/05/14 00:44:41;;;;;;;6.13;4.07;;;22.00;49.00;;;;;;4958672;28;20145;-76
2023/05/14 00:47:07;;;;;;;8.73;4.15;;;22.00;49.00;;;;;;4991783;28;20092;-77
2023/05/14 00:49:33;;;;;;;7.53;4.47;;;21.90;49.00;;;;;;4958848;28;20489;-77
2023/05/14 00:51:59;;;;;;;6.82;3.90;;;21.90;48.90;;;;;;4974664;28;20503;-77
2023/05/14 00:54:26;;;;;;;6.97;4.20;;;21.90;49.00;;;;;;4993821;28;20037;-77
2023/05/14 00:56:53;;;;;;;6.20;3.92;;;21.90;49.00;;;;;;4991848;28;20030;-77
2023/05/14 00:59:19;;;;;;;8.73;4.13;;;21.90;49.00;;;;;;4974764;28;20045;-77
2023/05/14 01:01:45;;;;;;;7.50;4.55;;;22.00;49.10;;;;;;4958774;28;20030;-77
2023/05/14 01:04:11;;;;;;;8.82;4.57;;;21.90;49.00;;;;;;4974748;28;20026;-77
2023/05/14 01:07:05;;;;;;;6.10;4.45;;;21.90;49.00;;;;;;4974589;28;20110;-77
2023/05/14 01:10:09;;;;;;;7.63;3.97;;;21.90;49.00;;;;;;4991911;28;20476;-75
2023/05/14 01:12:57;;;;;;;14.18;4.85;;;21.90;49.00;;;;;;4930625;28;20042;-73
2023/05/14 01:15:29;;;;;;;8.57;4.80;;;21.90;48.70;;;;;;4957144;28;20034;-73
2023/05/14 01:18:04;;;;;;;8.80;4.88;;;21.70;46.50;;;;;;4989555;28;20033;-77
2023/05/14 01:20:30;;;;;;;9.40;4.47;;;21.60;45.70;;;;;;4973010;28;20050;-76
2023/05/14 01:22:56;;;;;;;8.02;4.57;;;21.60;46.80;;;;;;4956988;28;20065;-76
2023/05/14 01:25:22;;;;;;;11.73;4.97;;;21.70;47.20;;;;;;4972311;28;20105;-75
2023/05/14 01:28:12;;;;;;;13.68;4.65;;;21.70;47.70;;;;;;4972051;28;20033;-77
2023/05/14 01:31:08;;;;;;;11.75;4.60;;;21.80;48.00;;;;;;4972505;28;20501;-77
2023/05/14 01:33:35;;;;;;;10.45;4.30;;;21.80;48.20;;;;;;4956688;28;20065;-76
2023/05/14 01:36:02;;;;;;;12.52;4.78;;;21.90;48.30;;;;;;4989839;28;20073;-77
2023/05/14 01:38:30;;;;;;;15.35;5.28;;;21.90;48.40;;;;;;4972157;28;20373;-76
2023/05/14 01:40:56;;;;;;;16.35;4.88;;;21.90;48.60;;;;;;4972463;28;20076;-77
2023/05/14 01:43:23;;;;;;;11.43;5.57;;;22.00;48.80;;;;;;4968452;28;20105;-76
2023/05/14 01:45:48;;;;;;;9.32;4.50;;;22.00;49.00;;;;;;4972465;28;20461;-76
2023/05/14 01:48:14;;;;;;;10.07;4.35;;;22.00;49.20;;;;;;4989644;28;20050;-76
2023/05/14 01:50:40;;;;;;;9.43;4.63;;;22.00;49.70;;;;;;4956565;28;20481;-75
2023/05/14 01:53:06;;;;;;;9.55;4.53;;;22.00;49.70;;;;;;4972244;28;20038;-76
2023/05/14 01:55:32;;;;;;;9.45;4.43;;;22.00;50.00;;;;;;4975607;28;20027;-76
2023/05/14 01:57:58;;;;;;;10.40;4.43;;;22.00;50.20;;;;;;4959539;28;20408;-76
2023/05/14 02:00:24;;;;;;;10.63;4.57;;;22.00;50.60;;;;;;4960169;28;20088;-76
2023/05/14 02:02:50;;;;;;;10.25;4.63;;;22.00;50.70;;;;;;4993116;28;20121;-78
2023/05/14 02:05:16;;;;;;;12.13;4.60;;;22.00;50.80;;;;;;4973597;28;20572;-76
2023/05/14 02:07:42;;;;;;;16.63;4.65;;;22.00;50.90;;;;;;4957537;28;20132;-76
2023/05/14 02:10:08;;;;;;;10.35;4.38;;;22.00;51.20;;;;;;4958274;28;20027;-77
2023/05/14 02:12:34;;;;;;;12.57;4.43;;;22.00;51.50;;;;;;4958242;28;20030;-76
2023/05/14 02:15:00;;;;;;;8.77;4.20;;;22.00;51.80;;;;;;4957310;28;20033;-76
2023/05/14 02:17:27;;;;;;;11.57;4.82;;;22.10;52.40;;;;;;4974978;28;20109;-76
2023/05/14 02:19:53;;;;;;;13.23;4.38;;;22.00;52.80;;;;;;4942316;28;20030;-76
2023/05/14 02:22:19;;;;;;;10.80;4.22;;;22.00;52.90;;;;;;4974121;28;20097;-76
2023/05/14 02:24:45;;;;;;;9.57;4.35;;;22.10;53.10;;;;;;4942357;28;20043;-76
2023/05/14 02:27:12;;;;;;;11.57;4.18;;;22.10;53.20;;;;;;4957569;28;20035;-75
2023/05/14 02:29:38;;;;;;;9.23;4.18;;;22.10;53.50;;;;;;4958007;28;20391;-77
2023/05/14 02:32:04;;;;;;;10.95;3.90;;;22.10;53.90;;;;;;4957976;28;20042;-76
2023/05/14 02:34:32;;;;;;;13.35;4.50;;;22.10;54.30;;;;;;4957930;28;20034;-76
2023/05/14 02:36:58;;;;;;;6.80;3.70;;;22.10;54.80;;;;;;4957495;28;20489;-77
2023/05/14 02:39:23;;;;;;;9.93;4.57;;;22.10;55.40;;;;;;4943788;28;20038;-76
2023/05/14 02:41:49;;;;;;;8.57;4.20;;;22.10;56.20;;;;;;4984713;28;20119;-75
2023/05/14 02:44:16;;;;;;;8.63;4.18;;;22.10;56.70;;;;;;4967999;28;20084;-76
2023/05/14 02:46:42;;;;;;;10.95;5.00;;;22.10;57.30;;;;;;4965968;28;20492;-76
2023/05/14 02:49:08;;;;;;;8.60;4.28;;;22.10;58.20;;;;;;4981257;28;20025;-76
2023/05/14 02:51:34;;;;;;;12.50;4.82;;;22.10;59.00;;;;;;4959242;28;20425;-74
2023/05/14 02:53:59;;;;;;;9.70;4.07;;;22.20;59.60;;;;;;4958348;28;20500;-75
2023/05/14 02:56:25;;;;;;;10.88;4.53;;;22.10;60.30;;;;;;4942145;28;20045;-75
2023/05/14 02:58:51;;;;;;;8.32;4.20;;;22.10;60.50;;;;;;4957755;28;20090;-76
2023/05/14 03:01:17;;;;;;;8.02;4.35;;;22.10;60.70;;;;;;4957452;28;20035;-75
2023/05/14 03:03:43;;;;;;;10.30;4.25;;;22.10;60.50;;;;;;4941295;28;20034;-75
2023/05/14 03:06:09;;;;;;;11.73;4.80;;;22.10;60.50;;;;;;4974415;28;20068;-79
2023/05/14 03:08:35;;;;;;;13.85;4.72;;;22.20;61.70;;;;;;4941142;28;20066;-76
2023/05/14 03:11:01;;;;;;;8.90;4.25;;;22.30;60.80;;;;;;4957420;28;20581;-81
2023/05/14 03:13:27;;;;;;;11.15;4.60;;;22.20;61.00;;;;;;4957262;28;20047;-74
2023/05/14 03:15:53;;;;;;;11.10;4.32;;;22.20;60.50;;;;;;4974627;28;20441;-75
2023/05/14 03:18:20;;;;;;;17.83;4.10;;;22.20;60.70;;;;;;4972952;28;20027;-76
2023/05/14 03:20:46;;;;;;;19.83;4.63;;;22.30;59.40;;;;;;4941112;28;20027;-75
2023/05/14 03:23:12;;;;;;;13.80;5.30;;;22.20;58.90;;;;;;4980757;28;20026;-75
2023/05/14 03:25:38;;;;;;;11.70;4.45;;;22.20;58.50;;;;;;4975590;28;20026;-76
2023/05/14 03:28:03;;;;;;;10.60;4.18;;;22.20;58.80;;;;;;4975606;28;20125;-76
2023/05/14 03:30:29;;;;;;;16.90;4.53;;;22.10;58.50;;;;;;4975801;28;20023;-76
2023/05/14 03:32:56;;;;;;;7.75;4.20;;;22.10;58.50;;;;;;4993159;28;20045;-76
2023/05/14 03:35:22;;;;;;;12.05;4.18;;;22.10;58.20;;;;;;4983999;28;20034;-77
2023/05/14 03:37:48;;;;;;;12.02;4.43;;;22.10;58.10;;;;;;4975198;28;20034;-76
2023/05/14 03:40:14;;;;;;;15.35;4.38;;;22.10;57.90;;;;;;4975650;28;20030;-76
2023/05/14 03:42:42;;;;;;;8.85;3.88;;;22.10;57.50;;;;;;4975609;28;20534;-76
2023/05/14 03:45:09;;;;;;;9.75;4.40;;;22.10;57.50;;;;;;4975350;28;20037;-75
2023/05/14 03:47:35;;;;;;;9.80;4.28;;;22.10;57.40;;;;;;4948843;28;20031;-75
2023/05/14 03:50:01;;;;;;;9.45;4.38;;;22.10;57.80;;;;;;4992806;28;20019;-75
2023/05/14 03:52:27;;;;;;;9.40;3.85;;;22.10;57.10;;;;;;4975886;28;20169;-75
2023/05/14 03:54:52;;;;;;;10.20;4.30;;;22.10;57.10;;;;;;4975823;28;20045;-75
2023/05/14 03:57:18;;;;;;;9.63;3.83;;;22.00;56.70;;;;;;4975271;28;20069;-75
2023/05/14 03:59:44;;;;;;;9.18;4.30;;;22.00;56.70;;;;;;4992925;28;20124;-75
2023/05/14 04:02:10;;;;;;;7.90;3.83;;;22.00;56.60;;;;;;4992922;28;20029;-75
2023/05/14 04:04:35;;;;;;;14.70;4.30;;;22.00;55.90;;;;;;4959469;28;20027;-75
2023/05/14 04:07:01;;;;;;;12.85;4.53;;;22.00;56.30;;;;;;4975077;28;20516;-76
2023/05/14 04:09:28;;;;;;;5.97;3.88;;;22.00;56.20;;;;;;4975406;28;20399;-76
2023/05/14 04:11:53;;;;;;;8.57;4.03;;;22.00;55.90;;;;;;4959311;28;20018;-76
2023/05/14 04:14:20;;;;;;;8.30;4.30;;;22.00;55.70;;;;;;4975279;28;20034;-76
2023/05/14 04:16:47;;;;;;;7.80;3.92;;;22.00;55.20;;;;;;4958729;28;20077;-75
2023/05/14 04:19:12;;;;;;;8.05;4.05;;;22.00;55.60;;;;;;4975052;28;20480;-75
2023/05/14 04:21:38;;;;;;;8.02;3.95;;;22.00;55.30;;;;;;4959149;28;20061;-76
2023/05/14 04:24:05;;;;;;;9.82;4.05;;;22.00;55.50;;;;;;4992570;28;20034;-75
2023/05/14 04:26:30;;;;;;;7.18;4.13;;;22.00;55.40;;;;;;4992267;28;20544;-76
2023/05/14 04:28:57;;;;;;;9.15;3.70;;;22.00;55.30;;;;;;4992362;28;20106;-75
2023/05/14 04:31:22;;;;;;;7.85;4.38;;;22.00;55.50;;;;;;4975086;28;20030;-75
2023/05/14 04:33:48;;;;;;;6.97;3.90;;;22.00;55.20;;;;;;4959070;28;20117;-75
2023/05/14 04:36:14;;;;;;;8.07;4.10;;;22.00;55.00;;;;;;4992419;28;20579;-75
2023/05/14 04:38:40;;;;;;;9.77;3.85;;;22.00;54.90;;;;;;4991852;28;20040;-75
2023/05/14 04:41:06;;;;;;;7.78;4.05;;;22.00;54.60;;;;;;4975054;28;20129;-75
2023/05/14 04:43:32;;;;;;;8.02;4.30;;;22.00;54.50;;;;;;4992208;28;20113;-75
2023/05/14 04:45:58;;;;;;;6.32;4.00;;;22.00;54.70;;;;;;4958707;28;20034;-75
2023/05/14 04:48:24;;;;;;;9.93;4.68;;;22.00;54.70;;;;;;4991900;28;20049;-75
2023/05/14 04:50:50;;;;;;;10.65;4.20;;;22.00;54.60;;;;;;4974984;28;20123;-75
2023/05/14 04:53:16;;;;;;;6.97;3.80;;;22.00;54.40;;;;;;4992103;28;20119;-75
2023/05/14 04:55:42;;;;;;;6.30;3.58;;;22.00;54.10;;;;;;4992090;28;20542;-75
2023/05/14 04:58:08;;;;;;;8.23;4.40;;;22.00;54.60;;;;;;4991728;28;20388;-75
2023/05/14 05:00:33;;;;;;;7.35;3.83;;;22.00;54.30;;;;;;4992070;28;20125;-75
2023/05/14 05:02:59;;;;;;;7.38;3.75;;;22.00;53.70;;;;;;4992082;28;20031;-76
2023/05/14 05:05:25;;;;;;;9.73;4.50;;;22.00;54.20;;;;;;4990707;28;20027;-75
2023/05/14 05:07:51;;;;;;;8.45;4.40;;;22.00;54.20;;;;;;4990729;28;20125;-75
2023/05/14 05:10:17;;;;;;;6.53;3.65;;;22.00;54.30;;;;;;4990298;28;20116;-75
2023/05/14 05:12:42;;;;;;;8.23;4.35;;;22.00;54.10;;;;;;4974558;28;20030;-75
2023/05/14 05:15:08;;;;;;;7.85;4.25;;;22.00;54.20;;;;;;4990915;28;20031;-75
2023/05/14 05:17:34;;;;;;;8.13;3.67;;;22.00;54.20;;;;;;4991471;28;20110;-75
2023/05/14 05:20:00;;;;;;;6.90;4.13;;;22.00;54.80;;;;;;4991847;28;20049;-76
2023/05/14 05:22:26;;;;;;;6.20;4.05;;;22.00;54.10;;;;;;4974438;28;20034;-76
2023/05/14 05:24:52;;;;;;;7.60;3.80;;;22.00;54.20;;;;;;4991857;28;20505;-75
2023/05/14 05:27:19;;;;;;;7.10;3.80;;;22.00;54.20;;;;;;4991421;28;20041;-75
2023/05/14 05:29:45;;;;;;;7.90;4.00;;;22.00;54.20;;;;;;4995631;28;20069;-76
2023/05/14 05:32:11;;;;;;;7.18;3.80;;;22.00;54.10;;;;;;4978399;28;20030;-76
2023/05/14 05:34:37;;;;;;;9.73;3.88;;;22.00;54.10;;;;;;4995699;28;20026;-77
2023/05/14 05:37:04;;;;;;;7.22;4.40;;;22.00;54.00;;;;;;4995096;28;20105;-76
2023/05/14 05:39:33;;;;;;;7.47;3.85;;;22.00;54.00;;;;;;4995623;28;20030;-76
2023/05/14 05:42:01;;;;;;;10.63;4.13;;;22.00;53.90;;;;;;4995566;28;20029;-76
2023/05/14 05:44:27;;;;;;;8.38;4.20;;;22.00;53.80;;;;;;4995481;28;20484;-75
2023/05/14 05:46:55;;;;;;;7.82;4.38;;;22.00;53.90;;;;;;4995212;28;20045;-76
2023/05/14 05:49:22;;;;;;;7.20;4.22;;;22.00;53.80;;;;;;4978036;28;20553;-76
2023/05/14 05:51:47;;;;;;;8.68;4.32;;;22.00;53.90;;;;;;4978072;28;20105;-76
2023/05/14 05:54:13;;;;;;;7.10;3.67;;;22.00;53.90;;;;;;4995313;28;20061;-76
2023/05/14 05:56:39;;;;;;;10.35;4.22;;;22.00;53.80;;;;;;4977878;28;20030;-76
2023/05/14 05:59:05;;;;;;;7.53;3.85;;;22.00;53.90;;;;;;4995014;28;20061;-75
2023/05/14 06:01:31;;;;;;;6.45;4.22;;;22.00;53.70;;;;;;4977867;28;20022;-75
2023/05/14 06:03:57;;;;;;;7.32;4.32;;;22.00;53.70;;;;;;4995100;28;20113;-76
2023/05/14 06:06:23;;;;;;;6.38;3.92;;;22.00;53.80;;;;;;4994989;28;20026;-75
2023/05/14 06:08:49;;;;;;;7.82;4.28;;;22.00;53.80;;;;;;4977375;28;20029;-76
2023/05/14 06:11:15;;;;;;;6.80;3.85;;;22.00;53.70;;;;;;4995622;28;20034;-75
2023/05/14 06:13:41;;;;;;;6.95;4.13;;;22.00;53.70;;;;;;4995014;28;20579;-75
2023/05/14 06:16:07;;;;;;;8.00;4.10;;;22.00;53.70;;;;;;4994969;28;20109;-75
2023/05/14 06:18:33;;;;;;;8.88;3.92;;;22.00;53.70;;;;;;4994493;28;20030;-75
2023/05/14 06:20:59;;;;;;;6.43;3.53;;;22.10;53.70;;;;;;4993988;28;20027;-75
2023/05/14 06:23:25;;;;;;;4.90;3.58;;;22.00;53.60;;;;;;4994679;28;20038;-75
2023/05/14 06:25:51;;;;;;;8.27;3.88;;;22.00;53.50;;;;;;4977264;28;20511;-76
2023/05/14 06:28:17;;;;;;;8.60;4.00;;;22.00;53.50;;;;;;4994340;28;20495;-76
2023/05/14 06:30:42;;;;;;;7.70;4.18;;;22.00;53.60;;;;;;4994759;28;20069;-76
2023/05/14 06:33:08;;;;;;;7.65;4.07;;;22.00;53.60;;;;;;4977472;28;20053;-76
2023/05/14 06:35:34;;;;;;;10.18;4.00;;;22.00;53.50;;;;;;4977137;28;20026;-76
2023/05/14 06:38:00;;;;;;;10.13;4.45;;;22.00;53.50;;;;;;4976576;28;20035;-76
2023/05/14 06:40:26;;;;;;;6.45;4.18;;;22.00;53.50;;;;;;4976453;28;20479;-76
2023/05/14 06:42:54;;;;;;;6.72;3.97;;;22.00;53.50;;;;;;4994452;28;20113;-76
2023/05/14 06:45:20;;;;;;;7.45;3.97;;;22.00;53.40;;;;;;4960868;28;20031;-76
2023/05/14 06:47:46;;;;;;;7.85;4.03;;;22.00;53.30;;;;;;4994020;28;20404;-77
2023/05/14 06:50:12;;;;;;;6.20;3.60;;;22.00;53.40;;;;;;4996705;28;20027;-76
2023/05/14 06:52:38;;;;;;;7.25;3.55;;;22.00;53.40;;;;;;4993831;28;20105;-76
2023/05/14 06:55:04;;;;;;;5.28;3.72;;;22.00;53.40;;;;;;4984666;28;20064;-76
2023/05/14 06:57:30;;;;;;;8.27;4.15;;;22.00;53.40;;;;;;4976672;28;20512;-75
2023/05/14 06:59:56;;;;;;;6.20;3.97;;;22.00;53.40;;;;;;4995039;28;20026;-77
2023/05/14 07:02:22;;;;;;;6.32;3.60;;;22.00;53.40;;;;;;4977687;28;20022;-76
2023/05/14 07:04:47;;;;;;;8.60;4.32;;;22.00;53.30;;;;;;4978291;28;20109;-77
2023/05/14 07:07:17;;;;;;;7.53;3.90;;;22.00;53.30;;;;;;4974501;28;20204;-77
2023/05/14 07:09:43;;;;;;;7.90;4.05;;;22.00;53.50;;;;;;4959274;28;20049;-77
2023/05/14 07:12:09;;;;;;;8.68;4.07;;;22.00;53.50;;;;;;4991017;28;20042;-77
2023/05/14 07:14:35;;;;;;;7.70;3.95;;;22.10;53.70;;;;;;4997001;28;20026;-76
2023/05/14 07:17:01;;;;;;;7.22;3.97;;;22.10;53.80;;;;;;5011935;28;20037;-76
2023/05/14 07:19:28;;;;;;;5.95;3.90;;;22.10;53.80;;;;;;5012885;28;20022;-77
2023/05/14 07:21:54;;;;;;;8.07;4.10;;;22.10;54.40;;;;;;4995813;28;20037;-77
2023/05/14 07:24:20;;;;;;;5.68;3.72;;;22.10;53.80;;;;;;5013253;28;20033;-77
2023/05/14 07:26:46;;;;;;;8.13;4.68;;;22.10;54.10;;;;;;4995486;28;20045;-77
2023/05/14 07:29:11;;;;;;;10.30;4.97;;;21.80;46.40;;;;;;4979021;28;20084;-77
2023/05/14 07:31:37;;;;;;;13.77;5.22;;;21.60;45.40;;;;;;4981569;28;20030;-77
2023/05/14 07:34:03;;;;;;;9.05;4.85;;;21.40;44.10;;;;;;4993514;28;20033;-77
2023/05/14 07:36:29;;;;;;;12.50;5.07;;;21.40;44.00;;;;;;4975999;28;20042;-77
2023/05/14 07:38:55;;;;;;;11.18;6.68;;;21.20;42.80;;;;;;4993134;28;20034;-77
2023/05/14 07:41:21;;;;;;;11.80;7.47;;;21.10;43.80;;;;;;4992119;28;20045;-76
2023/05/14 07:43:46;;;;;;;17.92;6.38;;;21.20;43.50;;;;;;4994996;28;20023;-76
2023/05/14 07:46:13;;;;;;;14.95;6.40;;;21.20;43.30;;;;;;4976094;28;20037;-75
2023/05/14 07:48:39;;;;;;;13.95;5.63;;;21.10;43.40;;;;;;4975388;28;20033;-78
2023/05/14 07:51:05;;;;;;;9.50;4.32;;;21.10;42.70;;;;;;4992737;28;20456;-76
2023/05/14 07:53:30;;;;;;;13.32;4.28;;;21.00;42.80;;;;;;4987198;28;20050;-76
2023/05/14 07:55:58;;;;;;;9.32;4.13;;;20.90;42.60;;;;;;4993661;28;20026;-77
2023/05/14 07:58:26;;;;;;;9.27;4.10;;;21.00;43.20;;;;;;4995160;28;20060;-76
2023/05/14 08:00:52;;;;;;;8.32;4.07;;;21.10;43.00;;;;;;5000829;28;20026;-76
2023/05/14 08:03:18;;;;;;;10.52;4.82;;;21.20;43.10;;;;;;4984768;28;20392;-77
2023/05/14 08:05:44;;;;;;;16.27;6.30;;;21.20;43.30;;;;;;4997807;28;20034;-78
2023/05/14 08:08:11;;;;;;;11.95;6.13;;;21.30;43.70;;;;;;4975149;28;20036;-77
2023/05/14 08:10:37;;;;;;;14.68;5.85;;;21.40;43.20;;;;;;4992823;28;20092;-78
2023/05/14 08:13:03;;;;;;;16.67;5.78;;;21.40;43.00;;;;;;4991608;28;20033;-76
2023/05/14 08:15:29;;;;;;;15.73;5.80;;;21.40;43.10;;;;;;4982807;28;20453;-76
2023/05/14 08:18:04;;;;;;;9.07;4.50;;;21.40;42.30;;;;;;5002587;28;20036;-75
2023/05/14 08:20:30;;;;;;;13.15;4.53;;;21.40;41.80;;;;;;4952529;28;20030;-75
2023/05/14 08:22:59;;;;;;;11.52;4.60;;;21.40;41.70;;;;;;5003533;28;20026;-75
2023/05/14 08:25:25;;;;;;;9.80;4.20;;;21.40;41.80;;;;;;4994732;28;20027;-75
2023/05/14 08:27:52;;;;;;;9.88;3.60;;;21.40;41.20;;;;;;4992046;28;20081;-75
2023/05/14 08:30:19;;;;;;;10.68;3.80;;;21.40;41.30;;;;;;5003030;28;20034;-76
2023/05/14 08:32:44;;;;;;;6.38;3.72;;;21.40;41.50;;;;;;4994398;28;20495;-76
2023/05/14 08:35:10;;;;;;;8.93;3.60;;;21.50;42.50;;;;;;4994419;28;20029;-75
2023/05/14 08:37:36;;;;;;;7.80;3.38;;;21.40;41.00;;;;;;5011427;28;20026;-77
2023/05/14 08:40:02;;;;;;;12.73;3.72;;;21.40;41.20;;;;;;4978144;28;20448;-77
2023/05/14 08:42:28;;;;;;;8.57;3.88;;;21.50;41.60;;;;;;5011741;28;20108;-77
2023/05/14 08:45:03;;;;;;;9.15;3.78;;;21.50;42.00;;;;;;4994216;28;20135;-76
2023/05/14 08:47:30;;;;;;;8.82;4.05;;;21.50;42.20;;;;;;4994045;28;20033;-77
2023/05/14 08:50:05;;;;;;;8.68;4.07;;;21.60;42.70;;;;;;4978346;28;20096;-76
2023/05/14 08:52:32;;;;;;;7.93;3.60;;;21.70;43.10;;;;;;4994270;28;20051;-77
2023/05/14 08:55:04;;;;;;;7.35;4.00;;;21.70;43.20;;;;;;5011679;28;20048;-78
2023/05/14 08:57:32;;;;;;;7.40;4.00;;;21.70;43.70;;;;;;4993968;28;20124;-77
2023/05/14 08:59:58;;;;;;;7.85;4.20;;;21.70;43.90;;;;;;4994136;28;20483;-77
2023/05/14 09:02:30;;;;;;;7.53;3.70;;;21.70;44.10;;;;;;4993941;28;20041;-77
2023/05/14 09:04:58;;;;;;;9.38;4.03;;;21.70;44.20;;;;;;4962090;28;20040;-77
2023/05/14 09:07:24;;;;;;;8.82;3.50;;;21.70;44.40;;;;;;4993540;28;20034;-77
2023/05/14 09:09:51;;;;;;;8.35;3.92;;;21.70;44.50;;;;;;5011595;28;20161;-77
2023/05/14 09:12:21;;;;;;;10.68;3.85;;;21.80;44.70;;;;;;4994546;28;20103;-77
2023/05/14 09:14:48;;;;;;;6.57;3.50;;;21.80;44.80;;;;;;4977994;28;20034;-76
2023/05/14 09:17:15;;;;;;;5.25;3.33;;;21.80;44.80;;;;;;5011028;28;20391;-76
2023/05/14 09:19:42;;;;;;;5.22;3.40;;;21.80;44.90;;;;;;4977971;28;20034;-77
2023/05/14 09:22:11;;;;;;;6.78;3.50;;;21.80;45.20;;;;;;5011420;28;20038;-76
2023/05/14 09:24:40;;;;;;;8.80;3.70;;;21.80;45.00;;;;;;4993860;28;20021;-76
2023/05/14 09:27:07;;;;;;;9.70;4.05;;;21.80;45.10;;;;;;5010933;28;20396;-75
2023/05/14 09:29:33;;;;;;;6.03;3.60;;;21.80;45.20;;;;;;5011540;28;20037;-75
2023/05/14 09:32:03;;;;;;;5.68;3.55;;;21.90;45.40;;;;;;5011654;28;20050;-76
2023/05/14 09:34:33;;;;;;;6.22;3.72;;;21.80;45.50;;;;;;4978195;28;20092;-77
2023/05/14 09:37:01;;;;;;;6.35;3.40;;;21.80;45.60;;;;;;5010755;28;20034;-75
2023/05/14 09:39:28;;;;;;;7.80;3.30;;;21.90;45.70;;;;;;4993942;28;20064;-76
2023/05/14 09:41:54;;;;;;;6.55;3.20;;;21.90;45.80;;;;;;5011333;28;20026;-75
2023/05/14 09:44:21;;;;;;;5.25;3.35;;;21.90;45.90;;;;;;4993900;28;20030;-75
2023/05/14 09:46:48;;;;;;;5.82;3.40;;;21.90;46.00;;;;;;5010932;28;20034;-75
2023/05/14 09:49:14;;;;;;;8.00;3.60;;;21.90;46.10;;;;;;4993639;28;20033;-75
2023/05/14 09:51:42;;;;;;;5.63;3.15;;;21.90;46.20;;;;;;4994019;28;20097;-75
2023/05/14 09:54:08;;;;;;;6.80;3.17;;;21.90;46.30;;;;;;4993752;28;20097;-75
2023/05/14 09:56:35;;;;;;;6.53;3.30;;;21.90;46.30;;;;;;4993688;28;20413;-76
2023/05/14 09:59:01;;;;;;;6.55;3.33;;;21.90;46.40;;;;;;5010818;28;20026;-76
2023/05/14 10:01:28;;;;;;;6.93;3.25;;;21.90;46.50;;;;;;5011075;28;20030;-76
2023/05/14 10:03:57;;;;;;;6.97;3.40;;;21.90;46.60;;;;;;4993718;28;20045;-75
2023/05/14 10:06:26;;;;;;;7.13;3.63;;;21.90;46.70;;;;;;4993284;28;20484;-76
2023/05/14 10:08:55;;;;;;;5.85;3.40;;;21.90;46.70;;;;;;4993140;28;20034;-76
2023/05/14 10:11:24;;;;;;;4.75;3.13;;;21.90;46.80;;;;;;4977524;28;20056;-76
2023/05/14 10:14:22;;;;;;;6.28;3.33;;;21.90;47.00;;;;;;4993748;28;20550;-75
2023/05/14 10:16:50;;;;;;;6.63;3.15;;;21.90;47.00;;;;;;4996822;28;20034;-76
2023/05/14 10:19:18;;;;;;;9.40;3.72;;;21.90;47.00;;;;;;4997004;28;20029;-75
2023/05/14 10:21:48;;;;;;;7.25;3.60;;;21.80;47.10;;;;;;4997071;28;20095;-76
2023/05/14 10:24:14;;;;;;;5.35;3.40;;;21.80;47.00;;;;;;4996807;28;20041;-76
2023/05/14 10:26:41;;;;;;;5.90;3.40;;;21.80;47.10;;;;;;5014200;28;20030;-76
2023/05/14 10:29:09;;;;;;;4.95;3.35;;;21.80;47.30;;;;;;5014207;28;20428;-76
2023/05/14 10:31:58;;;;;;;5.38;3.25;;;21.80;47.30;;;;;;5014255;28;20018;-75
2023/05/14 10:34:42;;;;;;;6.10;3.80;;;21.80;47.30;;;;;;5014214;28;20412;-75
2023/05/14 10:37:17;;;;;;;6.75;3.80;;;21.90;47.30;;;;;;4996249;28;20677;-75
2023/05/14 10:39:49;;;;;;;5.43;3.65;;;21.80;47.40;;;;;;4996608;28;20045;-76
2023/05/14 10:42:20;;;;;;;5.28;3.20;;;21.80;47.50;;;;;;4980737;28;20030;-76
2023/05/14 10:44:56;;;;;;;8.07;3.42;;;21.90;47.60;;;;;;5014109;28;20030;-75
2023/05/14 10:47:23;;;;;;;7.13;3.30;;;21.80;47.60;;;;;;4995997;28;20037;-76
2023/05/14 10:49:51;;;;;;;4.95;3.00;;;21.80;47.50;;;;;;5013958;28;20507;-76
2023/05/14 10:52:18;;;;;;;5.38;3.47;;;21.90;47.60;;;;;;5014156;28;20026;-76
2023/05/14 10:54:56;;;;;;;7.05;3.67;;;21.80;47.60;;;;;;4996352;28;20508;-77
2023/05/14 10:57:23;;;;;;;6.07;3.35;;;21.90;47.60;;;;;;5013392;28;20129;-77
2023/05/14 10:59:55;;;;;;;5.45;3.13;;;21.90;47.60;;;;;;5013662;28;20034;-76
2023/05/14 11:02:28;;;;;;;6.43;3.60;;;21.90;47.60;;;;;;5013775;28;20507;-77
2023/05/14 11:05:05;;;;;;;6.30;3.20;;;21.90;47.60;;;;;;4996156;28;20037;-77
2023/05/14 11:07:43;;;;;;;6.95;3.53;;;21.80;47.60;;;;;;5013190;28;20037;-77
2023/05/14 11:10:10;;;;;;;5.38;3.15;;;21.90;48.20;;;;;;4979933;28;20061;-77
2023/05/14 11:12:39;;;;;;;6.72;3.80;;;21.80;47.60;;;;;;5013590;28;20525;-77
2023/05/14 11:15:10;;;;;;;6.32;3.70;;;21.80;47.60;;;;;;4995922;28;20033;-77
2023/05/14 11:17:39;;;;;;;5.97;3.40;;;21.90;47.60;;;;;;5013055;28;20034;-76
2023/05/14 11:20:06;;;;;;;4.85;3.15;;;21.80;47.80;;;;;;4995986;28;20448;-75
2023/05/14 11:22:33;;;;;;;8.55;3.75;;;21.80;47.70;;;;;;4995947;28;20068;-75
2023/05/14 11:24:59;;;;;;;5.10;3.53;;;21.80;47.90;;;;;;4995720;28;20057;-75
2023/05/14 11:27:25;;;;;;;5.45;3.13;;;21.80;47.80;;;;;;4994972;28;20065;-76
2023/05/14 11:29:51;;;;;;;5.15;3.50;;;21.80;47.80;;;;;;5013240;28;20097;-76
2023/05/14 11:32:18;;;;;;;6.40;3.42;;;21.80;47.90;;;;;;5013152;28;20495;-75
2023/05/14 11:34:45;;;;;;;7.45;3.67;;;21.80;47.90;;;;;;4995555;28;20118;-76
2023/05/14 11:37:12;;;;;;;7.03;3.80;;;21.80;48.00;;;;;;5012511;28;20022;-75
2023/05/14 11:39:45;;;;;;;6.00;3.22;;;21.80;48.00;;;;;;5013083;28;20503;-76
2023/05/14 11:42:13;;;;;;;5.38;3.58;;;21.80;48.10;;;;;;5012801;28;20161;-75
2023/05/14 11:44:40;;;;;;;6.45;3.63;;;21.80;48.00;;;;;;4995330;28;20068;-75
2023/05/14 11:47:06;;;;;;;8.68;3.50;;;21.80;48.10;;;;;;5012390;28;20507;-75
2023/05/14 11:49:34;;;;;;;7.97;3.78;;;21.80;48.00;;;;;;5012820;28;20384;-75
2023/05/14 11:52:02;;;;;;;5.13;3.15;;;21.80;48.00;;;;;;4995370;28;20088;-75
2023/05/14 11:54:29;;;;;;;5.10;3.20;;;21.80;48.00;;;;;;5012654;28;20018;-75
2023/05/14 11:56:56;;;;;;;4.97;3.53;;;21.90;48.00;;;;;;4978576;28;20088;-76
2023/05/14 11:59:27;;;;;;;8.63;3.45;;;21.90;48.10;;;;;;5012684;28;20022;-75
2023/05/14 12:01:57;;;;;;;7.03;3.78;;;21.90;48.00;;;;;;5012787;28;20480;-75
2023/05/14 12:04:23;;;;;;;5.65;3.42;;;21.90;48.10;;;;;;4995125;28;20057;-76
2023/05/14 12:06:50;;;;;;;6.05;3.72;;;21.90;48.10;;;;;;4994761;28;20037;-76
2023/05/14 12:09:22;;;;;;;5.28;3.60;;;21.90;48.10;;;;;;4995193;28;20022;-76
2023/05/14 12:11:49;;;;;;;7.15;3.60;;;21.90;48.10;;;;;;4994983;28;20088;-76
2023/05/14 12:14:23;;;;;;;6.00;3.55;;;21.90;48.10;;;;;;4979075;28;20036;-76
2023/05/14 12:16:50;;;;;;;5.38;3.50;;;21.90;48.20;;;;;;5012237;28;20049;-76
2023/05/14 12:19:18;;;;;;;5.57;3.40;;;21.90;48.20;;;;;;4994707;28;20483;-77
2023/05/14 12:21:46;;;;;;;6.80;3.63;;;21.90;48.30;;;;;;4994582;28;20044;-77
2023/05/14 12:24:14;;;;;;;8.75;3.97;;;21.90;48.30;;;;;;4994880;28;20037;-76
2023/05/14 12:26:44;;;;;;;5.55;3.70;;;21.90;48.30;;;;;;5011976;28;20026;-76
2023/05/14 12:29:11;;;;;;;;;;;21.90;48.30;;;;;;4978760;28;20041;-76
2023/05/14 12:31:48;;;;;;;7.03;3.58;;;21.90;48.30;;;;;;4994817;28;20286;-76
2023/05/14 12:34:15;;;;;;;6.60;3.70;;;21.90;48.30;;;;;;4994574;28;20026;-76
2023/05/14 12:36:41;;;;;;;8.18;3.83;;;21.90;48.30;;;;;;4994220;28;20033;-76
2023/05/14 12:39:08;;;;;;;4.95;3.28;;;21.90;48.40;;;;;;4993796;28;20041;-77
2023/05/14 12:41:34;;;;;;;6.63;3.58;;;21.90;48.40;;;;;;4978212;28;20045;-76
2023/05/14 12:44:02;;;;;;;6.13;3.65;;;21.90;48.40;;;;;;4994522;28;20087;-77
2023/05/14 12:46:28;;;;;;;5.38;3.33;;;21.90;48.50;;;;;;5011665;28;20554;-77